M I D A S
Marine Information and Data Acquisition System
Tripno 1383 of the Zeeleeuw from 2007-10-17 06:45:15 to 2007-10-17 14:47:27
Back to CruiseResearch ActivitiesStationsMapUnderway DataData graphs

EquipmentUnitsComment
TimeDGPSUTC
LatitudeDGPSDM.mWGS84
LongitudeDGPSDM.mWGS84
HeadingGyrodeg 
SOGDGPSknotsSpeed over ground
COGDGPSdegCourse over ground
DepthEcho soundermeters200 kHz
Missing or incorrect values are displayed as -999
Navigation data collected by the RV Zeeleeuw from 2007-10-17 06:05:17 to 2007-10-17 15:01:04
Time Latitude Longitude Heading SOG COG Depth
2007-10-17 06:06:22 51°13.597 2°56.093 123.6 -999 118 9.3
2007-10-17 06:07:21 51°13.596 2°56.093 123.6 -999 193 9.3
2007-10-17 06:08:19 51°13.597 2°56.093 123.4 -999 336 9.2
2007-10-17 06:09:19 51°13.597 2°56.094 123.4 -999 323 9.2
2007-10-17 06:10:19 51°13.597 2°56.094 123.3 -999 294 9.2
2007-10-17 06:11:19 51°13.597 2°56.094 123.3 -999 35 9.2
2007-10-17 06:12:19 51°13.598 2°56.094 123.3 -999 140 9.2
2007-10-17 06:13:19 51°13.598 2°56.094 123.3 -999 331 9.2
2007-10-17 06:14:19 51°13.598 2°56.094 123.1 -999 334 9.2
2007-10-17 06:15:19 51°13.598 2°56.094 123 -999 314 -999
2007-10-17 06:16:19 51°13.598 2°56.094 123.1 -999 37 9.3
2007-10-17 06:17:19 51°13.599 2°56.095 123 -999 150 9.3
2007-10-17 06:18:19 51°13.599 2°56.095 123.1 -999 327 9.1
2007-10-17 06:19:19 51°13.599 2°56.095 123.2 -999 302 9
2007-10-17 06:20:19 51°13.596 2°56.096 123.3 -999 38 9.1
2007-10-17 06:21:19 51°13.596 2°56.096 123.4 -999 294 9.1
2007-10-17 06:22:19 51°13.596 2°56.097 123.4 -999 309 9
2007-10-17 06:23:19 51°13.596 2°56.097 123.5 -999 300 9
2007-10-17 06:24:19 51°13.597 2°56.097 123.7 -999 168 9
2007-10-17 06:25:19 51°13.597 2°56.097 123.9 -999 316 9
2007-10-17 06:26:19 51°13.593 2°56.097 123.9 -999 328 9
2007-10-17 06:27:19 51°13.598 2°56.097 123.7 -999 60 9
2007-10-17 06:28:19 51°13.598 2°56.097 123.7 -999 180 9.1
2007-10-17 06:29:19 51°13.598 2°56.097 123.8 0.1 38 9
2007-10-17 06:30:19 51°13.598 2°56.096 123.8 -999 345 8.9
2007-10-17 06:31:19 51°13.597 2°56.096 123.8 -999 278 8.9
2007-10-17 06:32:20 51°13.598 2°56.097 123.7 -999 308 8.9
2007-10-17 06:33:19 51°13.598 2°56.097 123.7 -999 17 8.9
2007-10-17 06:34:19 51°13.603 2°56.097 124 -999 194 8.9
2007-10-17 06:35:19 51°13.603 2°56.097 123.9 -999 275 8.9
2007-10-17 06:36:19 51°13.598 2°56.097 123.9 -999 9 9.1
2007-10-17 06:37:19 51°13.597 2°56.097 124 -999 16 8.9
2007-10-17 06:38:19 51°13.596 2°56.097 124.2 -999 195 8.8
2007-10-17 06:39:19 51°13.597 2°56.097 124.1 -999 21 8.8
2007-10-17 06:40:19 51°13.596 2°56.097 124.1 -999 180 8.7
2007-10-17 06:41:19 51°13.6 2°56.096 124.2 -999 303 8.7
2007-10-17 06:42:19 51°13.605 2°56.096 124.2 -999 314 8.7
2007-10-17 06:43:19 51°13.603 2°56.096 124.2 -999 22 8.8
2007-10-17 06:44:19 51°13.602 2°56.096 124.3 -999 338 9
2007-10-17 06:45:19 51°13.597 2°56.096 124.5 -999 203 8.7
2007-10-17 06:46:19 51°13.598 2°56.096 125.8 -999 261 8.7
2007-10-17 06:47:19 51°13.6 2°56.095 126 0.1 156 8.9
2007-10-17 06:48:19 51°13.598 2°56.095 125.2 -999 49 8.6
2007-10-17 06:49:19 51°13.598 2°56.094 125.7 0.1 282 8.7
2007-10-17 06:50:19 51°13.598 2°56.093 127.6 0.1 244 8.7
2007-10-17 06:51:19 51°13.597 2°56.093 131 0.1 236 8.7
2007-10-17 06:52:19 51°13.597 2°56.092 134.4 0.1 251 8.7
2007-10-17 06:53:20 51°13.595 2°56.09 141.2 0.2 172 9.2
2007-10-17 06:54:19 51°13.572 2°56.121 141.5 3 140 10.8
2007-10-17 06:55:19 51°13.532 2°56.183 124.1 3 121 11.9
2007-10-17 06:56:19 51°13.532 2°56.243 70.9 0.5 74 10.8
2007-10-17 06:57:23 51°13.532 2°56.235 41.7 1.5 29 -999
2007-10-17 06:58:21 51°13.539 2°56.239 8.6 1.6 185 9.9
2007-10-17 06:59:23 51°13.524 2°56.229 338.1 2.7 325 -999
2007-10-17 07:00:21 51°13.562 2°56.133 301.7 5.6 301 10.7
2007-10-17 07:01:19 51°13.613 2°55.999 303.8 6.4 302 11.3
2007-10-17 07:02:19 51°13.667 2°55.859 304.8 6 302 10.6
2007-10-17 07:03:19 51°13.729 2°55.732 315.7 6.3 313 -999
2007-10-17 07:04:19 51°13.817 2°55.64 336.9 6.4 335 -999
2007-10-17 07:05:19 51°13.916 2°55.566 339 7 337 11
2007-10-17 07:06:19 51°14.039 2°55.484 340.4 9 337 10.5
2007-10-17 07:07:20 51°14.182 2°55.366 332 9.9 328 -999
2007-10-17 07:08:21 51°14.314 2°55.171 311.9 11.4 309 10.9
2007-10-17 07:09:20 51°14.437 2°54.915 317.3 12.7 319 11.1
2007-10-17 07:10:19 51°14.622 2°54.773 346.6 12.6 343 9.7
2007-10-17 07:11:20 51°14.815 2°54.647 331.3 12.6 325 9.9
2007-10-17 07:12:19 51°14.981 2°54.45 330.9 12.6 327 9
2007-10-17 07:13:19 51°15.158 2°54.272 329.1 12.7 326 9
2007-10-17 07:14:19 51°15.348 2°54.13 347.6 12.4 344 9.8
2007-10-17 07:15:19 51°15.548 2°54.052 350.6 12.4 345 10.4
2007-10-17 07:16:20 51°15.75 2°53.961 351.3 12.5 346 10.9
2007-10-17 07:17:19 51°15.951 2°53.912 6 12.4 3 11.3
2007-10-17 07:18:20 51°16.129 2°54.049 51.4 12 47 11.4
2007-10-17 07:19:19 51°16.223 2°54.212 73.4 6 72 11.5
2007-10-17 07:20:19 51°16.252 2°54.307 55.6 2.3 50 11.5
2007-10-17 07:21:18 51°16.264 2°54.323 66.8 0.7 33 11.5
2007-10-17 07:22:19 51°16.273 2°54.333 88 0.6 36 11.5
2007-10-17 07:23:20 51°16.28 2°54.339 99.8 0.4 27 11.4
2007-10-17 07:24:19 51°16.285 2°54.343 109.5 0.3 26 11.4
2007-10-17 07:25:20 51°16.291 2°54.348 117.5 0.4 25 11.5
2007-10-17 07:26:19 51°16.296 2°54.35 122.5 0.3 12 11.4
2007-10-17 07:27:20 51°16.302 2°54.352 123.1 0.4 14 11.4
2007-10-17 07:28:19 51°16.308 2°54.354 123.7 0.4 18 11.5
2007-10-17 07:29:20 51°16.314 2°54.357 121.8 0.5 13 11.4
2007-10-17 07:30:18 51°16.321 2°54.36 120.5 0.4 37 11.4
2007-10-17 07:31:19 51°16.322 2°54.393 90.2 2.7 80 11.4
2007-10-17 07:32:20 51°16.377 2°54.433 357.8 4.6 347 11.3
2007-10-17 07:33:19 51°16.473 2°54.32 320.6 10.5 315 11.4
2007-10-17 07:34:20 51°16.586 2°54.054 302.9 12.4 299 11.4
2007-10-17 07:35:19 51°16.7 2°53.784 311.3 12.5 307 11.5
2007-10-17 07:36:20 51°16.822 2°53.51 309.7 12.4 306 11.1
2007-10-17 07:37:19 51°16.934 2°53.242 306.2 12.1 303 8.2
2007-10-17 07:38:20 51°17.055 2°52.977 314.4 12.3 311 8.9
2007-10-17 07:39:19 51°17.178 2°52.721 308.7 12.4 305 9.6
2007-10-17 07:40:20 51°17.305 2°52.454 312.8 12.4 308 10.3
2007-10-17 07:41:20 51°17.427 2°52.188 310.5 12.4 306 10.5
2007-10-17 07:42:20 51°17.546 2°51.929 311.7 11.5 308 10.6
2007-10-17 07:43:20 51°17.655 2°51.709 311.8 9.6 308 10
2007-10-17 07:44:20 51°17.739 2°51.533 311.3 7.7 308 10.1
2007-10-17 07:45:20 51°17.813 2°51.379 310.6 7.2 307 10.3
2007-10-17 07:46:20 51°17.886 2°51.227 311.3 7.2 308 11.1
2007-10-17 07:47:20 51°17.961 2°51.072 311.2 8.2 307 11.8
2007-10-17 07:48:20 51°18.054 2°50.88 312 9.5 308 12.6
2007-10-17 07:49:19 51°18.177 2°50.747 354 9 353 13.2
2007-10-17 07:50:20 51°18.327 2°50.762 26.3 8.9 22 13.7
2007-10-17 07:51:19 51°18.432 2°50.888 51.9 6.3 50 13.8
2007-10-17 07:52:20 51°18.478 2°50.988 61.4 3.6 54 13.8
2007-10-17 07:53:19 51°18.507 2°51.034 44.8 1.6 31 14
2007-10-17 07:54:20 51°18.524 2°51.038 22.3 0.9 7 13.9
2007-10-17 07:55:19 51°18.541 2°51.039 17.4 1.1 359 14
2007-10-17 07:56:20 51°18.559 2°51.037 13.5 1 357 14.1
2007-10-17 07:57:20 51°18.577 2°51.034 7.8 1.1 350 14.2
2007-10-17 07:58:20 51°18.595 2°51.028 358 1.1 344 14.1
2007-10-17 07:59:20 51°18.612 2°51.019 347.7 1 339 14.3
2007-10-17 08:00:19 51°18.625 2°51.006 338.1 0.9 327 14.1
2007-10-17 08:01:20 51°18.635 2°50.994 329.6 0.8 314 14.1
2007-10-17 08:02:20 51°18.677 2°50.949 332.4 7 327 14.1
2007-10-17 08:03:20 51°18.821 2°50.815 341.1 11.8 338 14.5
2007-10-17 08:04:18 51°19.012 2°50.732 349.8 12.3 343 14.5
2007-10-17 08:05:20 51°19.217 2°50.638 349.8 12.4 344 13.8
2007-10-17 08:06:19 51°19.412 2°50.549 349.8 12.4 343 12.2
2007-10-17 08:07:20 51°19.614 2°50.452 349.2 12.5 343 11.9
2007-10-17 08:08:20 51°19.813 2°50.356 349.6 12.5 344 13.3
2007-10-17 08:09:20 51°20.013 2°50.261 349.6 12.5 343 14.2
2007-10-17 08:10:20 51°20.214 2°50.167 349.8 12.5 344 16.6
2007-10-17 08:11:19 51°20.41 2°50.076 350.1 12.5 345 19.4
2007-10-17 08:12:20 51°20.614 2°49.98 349.8 12.5 345 21.7
2007-10-17 08:13:20 51°20.815 2°49.889 349 12.7 343 22.8
2007-10-17 08:14:20 51°21.017 2°49.796 349 12.7 344 23
2007-10-17 08:15:20 51°21.222 2°49.707 348.6 12.8 345 22
2007-10-17 08:16:20 51°21.428 2°49.618 349.6 12.9 345 21.7
2007-10-17 08:17:20 51°21.635 2°49.528 349.2 13 345 22.1
2007-10-17 08:18:18 51°21.837 2°49.447 348.8 13 346 22.9
2007-10-17 08:19:20 51°22.047 2°49.352 349.4 12.4 345 23
2007-10-17 08:20:18 51°22.241 2°49.265 349.8 12.6 346 22.4
2007-10-17 08:21:19 51°22.446 2°49.175 349.1 12.6 343 19
2007-10-17 08:22:20 51°22.651 2°49.085 349.6 12.5 345 14.3
2007-10-17 08:23:20 51°22.856 2°49.025 353.8 12.5 349 15.9
2007-10-17 08:24:20 51°23.06 2°48.969 355.1 12.4 350 19.3
2007-10-17 08:25:19 51°23.262 2°48.909 355 12.7 349 20.5
2007-10-17 08:26:19 51°23.466 2°48.846 353.1 12.4 349 21.3
2007-10-17 08:27:20 51°23.673 2°48.783 355.5 12.4 351 22.2
2007-10-17 08:28:20 51°23.876 2°48.726 354.8 12.5 350 23
2007-10-17 08:29:20 51°24.081 2°48.663 354.7 12.6 349 21.8
2007-10-17 08:30:20 51°24.284 2°48.597 355.6 12.5 349 20.5
2007-10-17 08:31:20 51°24.489 2°48.534 353 12.4 348 23.1
2007-10-17 08:32:20 51°24.695 2°48.473 355.2 12.6 349 24.6
2007-10-17 08:33:20 51°24.902 2°48.42 358.5 12.6 353 25.9
2007-10-17 08:34:20 51°25.111 2°48.383 1.3 12.6 354 28.4
2007-10-17 08:35:20 51°25.323 2°48.352 357.9 12.7 353 28.5
2007-10-17 08:36:18 51°25.526 2°48.32 359.2 12.6 353 24.6
2007-10-17 08:37:20 51°25.716 2°48.282 -999 8.9 355 23.3
2007-10-17 08:38:18 51°25.826 2°48.311 27.2 6 20 23.1
2007-10-17 08:39:20 51°25.908 2°48.389 44.1 5.4 34 23.3
2007-10-17 08:40:20 51°25.976 2°48.451 40.6 3.8 32 23.3
2007-10-17 08:41:20 51°26.005 2°48.503 76.3 1.6 61 23
2007-10-17 08:42:20 51°26.015 2°48.512 86 0.6 33 23
2007-10-17 08:43:20 51°26.022 2°48.521 106.9 0.4 30 22.9
2007-10-17 08:44:20 51°26.027 2°48.525 120.4 0.2 10 22.5
2007-10-17 08:45:20 51°26.033 2°48.528 128.4 0.4 15 22.9
2007-10-17 08:46:20 51°26.039 2°48.53 132.2 0.5 16 23.2
2007-10-17 08:47:20 51°26.047 2°48.531 134.7 0.4 2 23.1
2007-10-17 08:48:20 51°26.055 2°48.532 134 0.5 6 23.3
2007-10-17 08:49:20 51°26.063 2°48.534 133.5 0.6 5 23.3
2007-10-17 08:50:20 51°26.071 2°48.535 129.2 0.5 -999 22.7
2007-10-17 08:51:20 51°26.08 2°48.536 128.5 0.4 16 21.6
2007-10-17 08:52:20 51°26.088 2°48.538 131.6 0.5 26 23
2007-10-17 08:53:19 51°26.094 2°48.541 133.7 0.5 19 23.4
2007-10-17 08:54:19 51°26.1 2°48.545 137.7 0.4 40 23.2
2007-10-17 08:55:20 51°26.106 2°48.549 135.7 0.3 17 23.1
2007-10-17 08:56:20 51°26.113 2°48.553 131.6 0.4 58 23
2007-10-17 08:57:20 51°26.112 2°48.602 85.7 2.9 78 23.4
2007-10-17 08:58:20 51°26.16 2°48.636 3.4 3.9 353 22.8
2007-10-17 08:59:20 51°26.298 2°48.586 356.2 11.5 349 21.9
2007-10-17 09:00:20 51°26.498 2°48.528 356.1 12.3 350 18.2
2007-10-17 09:01:20 51°26.7 2°48.465 354.6 12.4 345 21.9
2007-10-17 09:02:20 51°26.9 2°48.413 357.6 12.1 351 22.9
2007-10-17 09:03:18 51°27.096 2°48.368 359.1 12.2 352 24.6
2007-10-17 09:04:20 51°27.303 2°48.322 359.3 12.2 353 26.3
2007-10-17 09:05:20 51°27.503 2°48.275 357.9 12.1 350 26
2007-10-17 09:06:20 51°27.701 2°48.22 357.4 12.1 351 26.3
2007-10-17 09:07:20 51°27.9 2°48.16 356.7 12.2 350 26.6
2007-10-17 09:08:20 51°28.097 2°48.101 355.4 11.9 350 30.4
2007-10-17 09:09:20 51°28.29 2°48.044 356 11.7 349 30.9
2007-10-17 09:10:20 51°28.481 2°47.985 355.8 11.6 349 30.6
2007-10-17 09:11:20 51°28.673 2°47.932 356.6 11.7 351 28.2
2007-10-17 09:12:20 51°28.864 2°47.88 356.5 11.6 351 27.4
2007-10-17 09:13:20 51°29.054 2°47.831 357 11.5 352 26.3
2007-10-17 09:14:20 51°29.242 2°47.78 356.7 11.5 350 26.1
2007-10-17 09:15:20 51°29.429 2°47.726 355 11.4 347 24.3
2007-10-17 09:16:20 51°29.617 2°47.673 357.2 11.4 353 19.9
2007-10-17 09:17:20 51°29.802 2°47.619 355 11.4 346 20.9
2007-10-17 09:18:20 51°29.987 2°47.567 356.7 11.4 352 23.6
2007-10-17 09:19:20 51°30.172 2°47.511 356.3 11.3 351 26
2007-10-17 09:20:20 51°30.356 2°47.453 356.7 11.2 349 25.1
2007-10-17 09:21:20 51°30.54 2°47.401 356.8 11.3 353 27.2
2007-10-17 09:22:20 51°30.725 2°47.345 356.2 11.2 349 27.7
2007-10-17 09:23:20 51°30.908 2°47.288 356.2 11.2 349 26.3
2007-10-17 09:24:20 51°31.092 2°47.231 354.9 11.1 349 28
2007-10-17 09:25:20 51°31.275 2°47.174 357 11.2 350 26.4
2007-10-17 09:26:20 51°31.459 2°47.124 0.9 11.2 353 28.6
2007-10-17 09:27:20 51°31.644 2°47.091 0.8 11.3 353 30.2
2007-10-17 09:28:20 51°31.829 2°47.055 359.8 11.2 353 27.6
2007-10-17 09:29:20 51°32.015 2°47.019 0.8 11.3 353 29.3
2007-10-17 09:30:20 51°32.201 2°46.986 359.9 11.2 354 29.8
2007-10-17 09:31:20 51°32.385 2°46.948 -999 11.3 351 29.8
2007-10-17 09:32:20 51°32.57 2°46.909 0.8 11.2 353 29.8
2007-10-17 09:33:20 51°32.754 2°46.872 359.7 11.2 352 31.5
2007-10-17 09:34:20 51°32.938 2°46.838 0.8 11.2 353 31.9
2007-10-17 09:35:20 51°33.124 2°46.806 1.9 11.1 355 32
2007-10-17 09:36:20 51°33.309 2°46.788 2.6 11.1 354 30.3
2007-10-17 09:37:20 51°33.494 2°46.773 3.4 11.1 357 31.4
2007-10-17 09:38:20 51°33.678 2°46.759 2.9 11.1 355 29.4
2007-10-17 09:39:20 51°33.859 2°46.743 2.8 10.9 355 27.7
2007-10-17 09:40:20 51°34.041 2°46.734 6.5 10.9 5 32.1
2007-10-17 09:41:20 51°34.218 2°46.779 20.3 10.7 19 29.9
2007-10-17 09:42:20 51°34.322 2°46.86 27.8 4.6 28 31.9
2007-10-17 09:43:20 51°34.374 2°46.909 28.4 3.4 35 32.1
2007-10-17 09:44:20 51°34.424 2°46.959 28.3 3.6 36 30.6
2007-10-17 09:45:20 51°34.476 2°47.013 28.3 3.7 30 31.5
2007-10-17 09:46:20 51°34.533 2°47.059 27.1 4 27 26.2
2007-10-17 09:47:20 51°34.589 2°47.114 31.6 3.9 33 31.3
2007-10-17 09:48:20 51°34.644 2°47.174 31.5 4 37 28.4
2007-10-17 09:49:20 51°34.695 2°47.237 29.8 3.7 31 31.2
2007-10-17 09:50:20 51°34.748 2°47.289 33 3.9 38 30.8
2007-10-17 09:51:20 51°34.795 2°47.35 32.7 3.6 37 33.8
2007-10-17 09:52:20 51°34.83 2°47.4 34.5 1.5 52 33.3
2007-10-17 09:53:19 51°34.824 2°47.422 46.2 0.9 154 33.3
2007-10-17 09:54:20 51°34.801 2°47.43 56.1 1.6 177 34.1
2007-10-17 09:55:20 51°34.769 2°47.427 77.6 2.2 187 33.1
2007-10-17 09:56:20 51°34.735 2°47.416 90.7 2 193 32
2007-10-17 09:57:20 51°34.701 2°47.402 96.9 2.1 193 28.1
2007-10-17 09:58:20 51°34.665 2°47.387 97.4 2.2 194 31.3
2007-10-17 09:59:20 51°34.635 2°47.396 76.4 2 123 30.9
2007-10-17 10:00:20 51°34.656 2°47.428 6.7 2.2 2 31
2007-10-17 10:01:20 51°34.667 2°47.322 282.7 7.6 264 31.9
2007-10-17 10:02:20 51°34.686 2°47.043 295.4 11.3 282 29.3
2007-10-17 10:03:20 51°34.737 2°46.74 299.6 11.6 287 32.6
2007-10-17 10:04:20 51°34.79 2°46.442 299 11.6 285 32
2007-10-17 10:05:20 51°34.846 2°46.143 302.4 11.5 293 31.5
2007-10-17 10:06:20 51°34.903 2°45.96 326.3 4 303 26.1
2007-10-17 10:07:20 51°34.939 2°45.887 344.7 3.4 316 20.9
2007-10-17 10:08:20 51°34.996 2°45.836 353.5 4.4 335 15.9
2007-10-17 10:09:20 51°35.027 2°45.783 348.7 1.5 271 12
2007-10-17 10:10:20 51°35.014 2°45.756 7.2 1.7 206 14.6
2007-10-17 10:11:22 51°34.978 2°45.729 48 2.5 204 13.3
2007-10-17 10:12:20 51°34.942 2°45.694 81.4 2.4 218 13.9
2007-10-17 10:13:20 51°34.911 2°45.658 102.9 2.2 211 13.3
2007-10-17 10:14:20 51°34.88 2°45.632 106.8 2.1 206 15.5
2007-10-17 10:15:20 51°34.85 2°45.611 95.1 2.1 204 14.8
2007-10-17 10:16:20 51°34.818 2°45.604 101.6 2.2 169 13.5
2007-10-17 10:17:20 51°34.764 2°45.636 149.5 4.8 172 16.2
2007-10-17 10:18:20 51°34.662 2°45.589 200.6 8.7 202 16.4
2007-10-17 10:19:21 51°34.463 2°45.53 188.1 12.8 181 -999
2007-10-17 10:20:20 51°34.245 2°45.477 185.7 13.5 187 25.9
2007-10-17 10:21:20 51°34.019 2°45.413 189.3 14.1 190 28.3
2007-10-17 10:22:20 51°33.793 2°45.347 192.4 13.6 189 27.5
2007-10-17 10:23:20 51°33.569 2°45.282 190.3 13.8 196 28.9
2007-10-17 10:24:20 51°33.345 2°45.215 186.2 13.8 189 29.5
2007-10-17 10:25:20 51°33.12 2°45.142 190.3 14.2 196 29.2
2007-10-17 10:26:20 51°32.898 2°45.074 190.1 13.6 196 30.9
2007-10-17 10:27:20 51°32.677 2°45.007 184.7 13.3 188 31.7
2007-10-17 10:28:20 51°32.454 2°44.94 189.9 13.9 196 34.3
2007-10-17 10:29:20 51°32.231 2°44.867 187.4 13.7 194 34.3
2007-10-17 10:30:20 51°32.006 2°44.793 189.6 14.1 190 34.1
2007-10-17 10:31:20 51°31.785 2°44.722 190.7 13.4 193 32.4
2007-10-17 10:32:20 51°31.563 2°44.64 192.6 13.4 198 33.1
2007-10-17 10:33:20 51°31.342 2°44.552 190.5 13.9 196 31.7
2007-10-17 10:34:20 51°31.123 2°44.467 189.5 13.9 188 33.1
2007-10-17 10:35:20 51°30.904 2°44.371 193 14 202 33.2
2007-10-17 10:36:20 51°30.685 2°44.282 192.8 13.1 195 31.2
2007-10-17 10:37:20 51°30.465 2°44.179 191.8 14.1 197 31.2
2007-10-17 10:38:20 51°30.246 2°44.073 194.8 13.9 196 33.1
2007-10-17 10:39:20 51°30.028 2°43.974 194.1 13.9 192 32.1
2007-10-17 10:40:20 51°29.811 2°43.875 194.9 13.4 200 29.6
2007-10-17 10:41:20 51°29.594 2°43.774 192.4 13.9 200 31.1
2007-10-17 10:42:20 51°29.374 2°43.677 193 14.3 188 29.9
2007-10-17 10:43:20 51°29.154 2°43.572 188.9 13.8 193 29.8
2007-10-17 10:44:20 51°28.933 2°43.469 191.6 13.9 198 30.1
2007-10-17 10:45:20 51°28.712 2°43.376 193.1 13.8 197 27.9
2007-10-17 10:46:20 51°28.496 2°43.283 191.7 13.5 193 30.3
2007-10-17 10:47:20 51°28.279 2°43.193 191.4 13.5 188 30.6
2007-10-17 10:48:20 51°28.065 2°43.098 199.6 12.8 204 31.7
2007-10-17 10:49:20 51°27.848 2°42.996 189.4 14 201 32.1
2007-10-17 10:50:20 51°27.633 2°42.907 195.9 13.2 193 32
2007-10-17 10:51:20 51°27.418 2°42.81 190.7 13.8 191 31.9
2007-10-17 10:52:20 51°27.202 2°42.711 191.3 13.2 195 31.7
2007-10-17 10:53:20 51°26.984 2°42.609 192.4 13.6 201 31.4
2007-10-17 10:54:20 51°26.769 2°42.51 193.9 13.9 201 30.6
2007-10-17 10:55:20 51°26.554 2°42.418 194.9 13.2 189 30.1
2007-10-17 10:56:20 51°26.341 2°42.32 190.5 13.7 187 26.6
2007-10-17 10:57:21 51°26.119 2°42.223 193.7 14 186 26.7
2007-10-17 10:58:20 51°25.909 2°42.117 189.3 14 192 26.9
2007-10-17 10:59:20 51°25.692 2°42.022 193.1 13.8 196 25.5
2007-10-17 11:00:20 51°25.474 2°41.926 190.6 13.8 192 25.1
2007-10-17 11:01:20 51°25.26 2°41.83 198.8 13.1 194 25.7
2007-10-17 11:02:20 51°25.043 2°41.741 190.8 13 188 25.4
2007-10-17 11:03:20 51°24.827 2°41.645 196.2 13.2 192 26.7
2007-10-17 11:04:20 51°24.608 2°41.551 193.9 13.2 194 26.1
2007-10-17 11:05:20 51°24.39 2°41.462 193.8 13.8 200 26.5
2007-10-17 11:06:20 51°24.173 2°41.371 196.8 13.6 206 -999
2007-10-17 11:07:20 51°23.955 2°41.283 192 13.3 188 29.1
2007-10-17 11:08:20 51°23.739 2°41.192 193.9 13.3 197 27.5
2007-10-17 11:09:20 51°23.524 2°41.109 192.4 12.7 191 29.9
2007-10-17 11:10:20 51°23.309 2°41.022 191.8 13.6 196 29.1
2007-10-17 11:11:20 51°23.097 2°40.932 194.9 13 206 29.7
2007-10-17 11:12:20 51°22.884 2°40.848 192.4 13.4 192 29.3
2007-10-17 11:13:20 51°22.669 2°40.757 196 13.2 199 29.8
2007-10-17 11:14:20 51°22.453 2°40.668 193.7 13 193 28.7
2007-10-17 11:15:20 51°22.236 2°40.586 192.9 13.7 187 28.8
2007-10-17 11:16:20 51°22.021 2°40.487 196.3 13.2 201 28.2
2007-10-17 11:17:20 51°21.807 2°40.38 202.6 12.9 201 27.9
2007-10-17 11:18:20 51°21.59 2°40.27 195.9 13.5 195 28.2
2007-10-17 11:19:21 51°21.373 2°40.171 197.4 13 206 26.7
2007-10-17 11:20:20 51°21.161 2°40.082 191.4 14.1 196 26.1
2007-10-17 11:21:20 51°20.95 2°39.965 204.2 13.7 195 25.9
2007-10-17 11:22:20 51°20.742 2°39.832 203.9 13.1 201 26.1
2007-10-17 11:23:20 51°20.532 2°39.712 202.2 13.4 189 25.3
2007-10-17 11:24:20 51°20.323 2°39.59 201.1 13.5 198 25.1
2007-10-17 11:25:20 51°20.114 2°39.462 199.8 14.1 203 25.6
2007-10-17 11:26:20 51°19.905 2°39.336 205.8 13.1 202 27.2
2007-10-17 11:27:20 51°19.695 2°39.214 199.9 13.5 194 27.8
2007-10-17 11:28:20 51°19.487 2°39.091 201.6 13.3 203 29
2007-10-17 11:29:20 51°19.273 2°38.965 201.3 13.5 201 28.6
2007-10-17 11:30:20 51°19.06 2°38.832 203.9 13.3 202 27.6
2007-10-17 11:31:20 51°18.846 2°38.7 203.5 14 200 26.9
2007-10-17 11:32:20 51°18.635 2°38.568 203.7 13.2 202 26.3
2007-10-17 11:33:20 51°18.422 2°38.44 202.5 13.3 201 26.9
2007-10-17 11:34:20 51°18.21 2°38.319 198.6 14.2 193 27
2007-10-17 11:35:20 51°18.001 2°38.196 199.2 13.5 200 26.8
2007-10-17 11:36:20 51°17.79 2°38.076 201.4 13.7 195 27
2007-10-17 11:37:20 51°17.58 2°37.953 205.4 13.2 208 -999
2007-10-17 11:38:20 51°17.371 2°37.831 204.4 12.9 199 27
2007-10-17 11:39:20 51°17.16 2°37.698 201.4 13.5 205 27
2007-10-17 11:40:20 51°16.949 2°37.578 201.1 13.8 202 27.5
2007-10-17 11:41:20 51°16.741 2°37.447 200.3 13.8 206 26.5
2007-10-17 11:42:20 51°16.532 2°37.316 203.9 13.6 209 25.8
2007-10-17 11:43:20 51°16.34 2°37.137 212.9 13.4 213 26.1
2007-10-17 11:44:20 51°16.194 2°36.884 242 12 234 25.2
2007-10-17 11:45:20 51°16.137 2°36.656 277.3 7.4 264 27.5
2007-10-17 11:46:20 51°16.169 2°36.528 344 4.3 325 27.2
2007-10-17 11:47:20 51°16.24 2°36.511 16.4 6.2 9 27.7
2007-10-17 11:48:20 51°16.338 2°36.522 15.7 6.2 5 28
2007-10-17 11:49:21 51°16.43 2°36.586 27.6 5.3 25 -999
2007-10-17 11:50:20 51°16.509 2°36.679 43.5 6.5 40 26.7
2007-10-17 11:51:20 51°16.575 2°36.75 38.5 3.2 36 27.6
2007-10-17 11:52:20 51°16.596 2°36.797 39.1 1.9 45 26.5
2007-10-17 11:53:20 51°16.593 2°36.808 33.2 0.7 171 26.7
2007-10-17 11:54:20 51°16.57 2°36.803 45.2 1.9 176 27.4
2007-10-17 11:55:20 51°16.538 2°36.791 62.8 2.6 183 25.9
2007-10-17 11:56:20 51°16.506 2°36.773 79.2 2.4 195 27.7
2007-10-17 11:57:20 51°16.474 2°36.754 83.5 2.6 195 27
2007-10-17 11:58:20 51°16.444 2°36.737 85.1 1.8 202 27.3
2007-10-17 11:59:20 51°16.413 2°36.723 79.3 1.9 195 26.8
2007-10-17 12:00:20 51°16.385 2°36.711 76.1 1.7 195 27.6
2007-10-17 12:01:20 51°16.358 2°36.7 68.9 2.2 187 28.1
2007-10-17 12:02:20 51°16.331 2°36.689 70.1 1.5 182 28.4
2007-10-17 12:03:20 51°16.307 2°36.718 99.9 3 126 28.6
2007-10-17 12:04:20 51°16.237 2°36.753 178.3 5.6 186 28
2007-10-17 12:05:20 51°16.111 2°36.685 198.9 9.9 197 26.3
2007-10-17 12:06:19 51°15.932 2°36.601 192.7 13 195 24.5
2007-10-17 12:07:20 51°15.717 2°36.507 193.2 13.2 193 19.6
2007-10-17 12:08:20 51°15.507 2°36.416 195.9 13 203 17.2
2007-10-17 12:09:21 51°15.289 2°36.402 180.2 11 175 -999
2007-10-17 12:10:21 51°15.073 2°36.393 181.8 12.4 177 16.2
2007-10-17 12:11:21 51°14.859 2°36.369 184.4 12.6 180 15.6
2007-10-17 12:12:20 51°14.66 2°36.44 154.2 12.2 155 13.7
2007-10-17 12:13:20 51°14.486 2°36.611 136.1 11.8 141 9.8
2007-10-17 12:14:21 51°14.381 2°36.878 107.4 11.5 117 11.3
2007-10-17 12:15:20 51°14.312 2°37.167 107.7 12.3 107 12.6
2007-10-17 12:16:20 51°14.234 2°37.457 100.6 11.4 107 16
2007-10-17 12:17:20 51°14.179 2°37.755 101.3 12.2 102 4.9
2007-10-17 12:18:20 51°14.119 2°38.052 101.3 11.4 101 18.6
2007-10-17 12:19:20 51°14.08 2°38.352 97.6 12 109 17.5
2007-10-17 12:20:19 51°14.039 2°38.655 103.2 12.8 107 13.2
2007-10-17 12:21:19 51°13.957 2°38.933 137.4 11.7 148 14
2007-10-17 12:22:19 51°13.754 2°38.951 181.5 12.8 175 15.2
2007-10-17 12:23:19 51°13.55 2°38.848 209.1 12.8 217 15
2007-10-17 12:24:19 51°13.354 2°38.709 205.4 13 200 14.8
2007-10-17 12:25:20 51°13.157 2°38.559 204.7 13 205 14.9
2007-10-17 12:26:20 51°12.956 2°38.422 205.5 13.2 204 14.9
2007-10-17 12:27:20 51°12.758 2°38.276 206.7 12.8 210 13.9
2007-10-17 12:28:20 51°12.558 2°38.145 206.8 12.9 207 13.5
2007-10-17 12:29:20 51°12.361 2°38.009 205 12.8 204 13.8
2007-10-17 12:30:20 51°12.165 2°37.872 204.4 12.8 204 14
2007-10-17 12:31:19 51°11.975 2°37.734 209.8 12.2 198 13.8
2007-10-17 12:32:19 51°11.776 2°37.603 202.7 12.6 208 15.1
2007-10-17 12:33:19 51°11.576 2°37.471 203 12 202 14.9
2007-10-17 12:34:19 51°11.379 2°37.349 204.5 12.2 194 14.8
2007-10-17 12:35:20 51°11.185 2°37.202 205.5 12.9 212 13.9
2007-10-17 12:36:20 51°10.992 2°37.057 205.2 13.7 200 12.8
2007-10-17 12:37:20 51°10.802 2°36.913 209.9 12.2 203 11.3
2007-10-17 12:38:20 51°10.612 2°36.776 207.7 12.2 208 10.2
2007-10-17 12:39:20 51°10.421 2°36.643 200 12.7 201 10.6
2007-10-17 12:40:20 51°10.221 2°36.691 157 12.1 154 18.5
2007-10-17 12:41:20 51°10.094 2°36.938 115.2 12.3 113 18.9
2007-10-17 12:42:20 51°10.08 2°37.256 86.1 12.4 90 18.5
2007-10-17 12:43:20 51°10.1 2°37.577 84.9 12.6 84 19
2007-10-17 12:44:20 51°10.118 2°37.899 83.5 12.2 83 17.6
2007-10-17 12:45:20 51°10.143 2°38.216 85.1 12.1 83 17.3
2007-10-17 12:46:20 51°10.161 2°38.535 85.7 12.4 83 17.3
2007-10-17 12:47:20 51°10.188 2°38.853 78.7 11.9 76 15.9
2007-10-17 12:48:20 51°10.229 2°39.164 76.2 11.9 77 16.2
2007-10-17 12:49:20 51°10.275 2°39.476 74.7 12.2 71 15.3
2007-10-17 12:50:20 51°10.333 2°39.783 73.5 12 79 14.2
2007-10-17 12:51:20 51°10.401 2°40.082 69.5 12.3 72 14.6
2007-10-17 12:52:20 51°10.473 2°40.383 69.5 12.2 68 14.5
2007-10-17 12:53:20 51°10.545 2°40.683 67.3 12 63 14.2
2007-10-17 12:54:20 51°10.618 2°40.982 68.8 12 67 14
2007-10-17 12:55:20 51°10.713 2°41.264 61.6 12 62 14
2007-10-17 12:56:20 51°10.815 2°41.54 57.6 12.1 60 14
2007-10-17 12:57:20 51°10.92 2°41.778 53.7 9.5 57 14.1
2007-10-17 12:58:20 51°10.996 2°41.932 43.4 5.5 46 14.1
2007-10-17 12:59:20 51°11.042 2°42.012 30.4 3.2 45 14.1
2007-10-17 13:00:20 51°11.058 2°42.052 22.5 1.7 56 14.7
2007-10-17 13:01:19 51°11.1 2°42.079 355.1 2.3 5 13.4
2007-10-17 13:02:20 51°11.112 2°42.096 11.2 0.7 102 13.8
2007-10-17 13:03:19 51°11.103 2°42.12 42.8 1.1 127 13.8
2007-10-17 13:04:19 51°11.09 2°42.143 68.1 1.2 136 14
2007-10-17 13:05:20 51°11.075 2°42.163 85 1.2 133 13.8
2007-10-17 13:06:20 51°11.059 2°42.183 85.6 1.3 144 14.2
2007-10-17 13:07:20 51°11.045 2°42.215 96 2.6 105 14
2007-10-17 13:08:20 51°11.012 2°42.287 149.1 3.9 156 14.2
2007-10-17 13:09:20 51°10.959 2°42.302 197.2 2.6 172 14.6
2007-10-17 13:10:19 51°10.926 2°42.298 213.6 1.6 182 14.5
2007-10-17 13:11:20 51°10.902 2°42.297 226.5 1.7 191 14.4
2007-10-17 13:12:19 51°10.866 2°42.254 242.2 3.4 224 14.2
2007-10-17 13:13:19 51°10.844 2°42.182 270.4 3 260 14.7
2007-10-17 13:14:19 51°10.841 2°42.099 275.5 3.1 266 14.2
2007-10-17 13:15:19 51°10.826 2°42.011 264.7 3.3 253 13.6
2007-10-17 13:16:19 51°10.805 2°41.928 256 3 238 13.7
2007-10-17 13:17:19 51°10.776 2°41.866 243.8 2.9 226 14
2007-10-17 13:18:19 51°10.744 2°41.81 243.3 2.8 225 14.5
2007-10-17 13:19:19 51°10.71 2°41.754 244.3 3.3 228 14.6
2007-10-17 13:20:19 51°10.679 2°41.687 251.8 3.2 245 14.1
2007-10-17 13:21:20 51°10.655 2°41.61 260 3 244 13.2
2007-10-17 13:22:20 51°10.633 2°41.533 256.2 3.4 238 14.5
2007-10-17 13:23:20 51°10.609 2°41.46 258.1 3.2 239 14
2007-10-17 13:24:20 51°10.584 2°41.38 256.3 3.3 246 13.9
2007-10-17 13:25:20 51°10.553 2°41.306 251.1 3.3 229 14.1
2007-10-17 13:26:20 51°10.529 2°41.23 258.4 3.3 244 14.1
2007-10-17 13:27:20 51°10.507 2°41.151 257.5 3.2 254 14
2007-10-17 13:28:20 51°10.483 2°41.073 256.1 3.2 242 13.5
2007-10-17 13:29:20 51°10.459 2°41 255.6 3.1 242 14.3
2007-10-17 13:30:20 51°10.433 2°40.926 255.9 3.1 248 13.7
2007-10-17 13:31:20 51°10.406 2°40.852 254 3 238 14.3
2007-10-17 13:32:20 51°10.38 2°40.783 255.1 3.1 239 13.9
2007-10-17 13:33:20 51°10.356 2°40.714 257.7 3 235 14.1
2007-10-17 13:34:20 51°10.334 2°40.641 261.5 3 246 14.7
2007-10-17 13:35:20 51°10.319 2°40.57 268.7 2.8 262 13.4
2007-10-17 13:36:20 51°10.308 2°40.502 271.4 2.4 263 14
2007-10-17 13:37:20 51°10.299 2°40.436 273 2.6 269 14.1
2007-10-17 13:38:20 51°10.293 2°40.363 275.9 2.6 262 14.4
2007-10-17 13:39:20 51°10.286 2°40.292 271.8 2.8 256 15.1
2007-10-17 13:40:20 51°10.278 2°40.217 271.5 2.8 261 14.7
2007-10-17 13:41:19 51°10.27 2°40.147 273.3 2.8 263 14.8
2007-10-17 13:42:20 51°10.261 2°40.073 271.1 2.9 261 15.4
2007-10-17 13:43:20 51°10.251 2°39.996 269.9 3.2 252 15.1
2007-10-17 13:44:20 51°10.243 2°39.916 274.6 2.9 267 15
2007-10-17 13:45:20 51°10.243 2°39.846 283.1 2.6 269 15.4
2007-10-17 13:46:20 51°10.249 2°39.781 290.4 2.7 279 16
2007-10-17 13:47:20 51°10.26 2°39.717 294.8 2.6 277 16
2007-10-17 13:48:20 51°10.269 2°39.659 291.3 2.3 286 16.3
2007-10-17 13:49:20 51°10.288 2°39.604 310.4 2.9 313 16.8
2007-10-17 13:50:20 51°10.331 2°39.575 350.5 3 4 17.1
2007-10-17 13:51:19 51°10.371 2°39.631 46.4 2.8 70 16.1
2007-10-17 13:52:19 51°10.38 2°39.689 48.4 2 76 16.5
2007-10-17 13:53:19 51°10.379 2°39.735 52.6 1.5 92 16.6
2007-10-17 13:54:19 51°10.37 2°39.774 66.5 1.6 118 16.2
2007-10-17 13:55:19 51°10.36 2°39.808 79.8 1.5 97 15.9
2007-10-17 13:56:20 51°10.356 2°39.87 75.2 2.8 81 16.2
2007-10-17 13:57:20 51°10.373 2°39.99 71.5 6.7 76 15.7
2007-10-17 13:58:20 51°10.404 2°40.194 78.2 8.4 79 15.7
2007-10-17 13:59:20 51°10.437 2°40.415 76.9 8.6 76 15.4
2007-10-17 14:00:20 51°10.472 2°40.639 75.8 8.7 72 14.9
2007-10-17 14:01:20 51°10.514 2°40.888 75 11 74 14.9
2007-10-17 14:02:20 51°10.566 2°41.177 74.3 11.5 73 14.9
2007-10-17 14:03:21 51°10.625 2°41.501 74.6 13.1 72 14.9
2007-10-17 14:04:20 51°10.685 2°41.831 74.4 13.4 70 14.9
2007-10-17 14:05:20 51°10.746 2°42.17 76.8 13.4 74 14.9
2007-10-17 14:06:21 51°10.815 2°42.508 73.6 13.1 70 14.2
2007-10-17 14:07:20 51°10.886 2°42.833 73 13.3 70 14.6
2007-10-17 14:08:20 51°10.959 2°43.163 72.5 13.1 68 14.8
2007-10-17 14:09:20 51°11.03 2°43.493 72.4 13.2 70 14.5
2007-10-17 14:10:20 51°11.099 2°43.823 72 13.2 71 14.2
2007-10-17 14:11:20 51°11.169 2°44.153 72.5 13.2 70 14.5
2007-10-17 14:12:20 51°11.239 2°44.481 73.6 13 73 14.5
2007-10-17 14:13:20 51°11.321 2°44.799 68.9 13 63 14.3
2007-10-17 14:14:20 51°11.406 2°45.119 68.2 13 68 14.7
2007-10-17 14:15:20 51°11.49 2°45.439 66.6 13.4 66 15.2
2007-10-17 14:16:20 51°11.574 2°45.761 69.6 13.1 69 14.9
2007-10-17 14:17:20 51°11.657 2°46.082 69.5 13.2 71 15
2007-10-17 14:18:20 51°11.74 2°46.402 68.3 13.2 68 15.2
2007-10-17 14:19:20 51°11.825 2°46.724 67.2 13 68 14.7
2007-10-17 14:20:20 51°11.911 2°47.045 67.8 13.1 69 15.1
2007-10-17 14:21:20 51°11.996 2°47.363 69.7 13.2 63 14.8
2007-10-17 14:22:20 51°12.095 2°47.674 61 13.1 60 15.1
2007-10-17 14:23:20 51°12.207 2°47.973 60.3 13.1 58 15.1
2007-10-17 14:24:20 51°12.315 2°48.271 61 13 60 13.9
2007-10-17 14:25:19 51°12.422 2°48.569 60.8 13.1 60 14.7
2007-10-17 14:26:19 51°12.531 2°48.872 61.1 13.2 61 14.6
2007-10-17 14:27:20 51°12.641 2°49.182 61.1 13 63 14.1
2007-10-17 14:28:19 51°12.749 2°49.475 61.6 13.2 58 15
2007-10-17 14:29:20 51°12.861 2°49.786 60.9 13.5 61 14.7
2007-10-17 14:30:20 51°12.974 2°50.086 61 13.2 56 14.4
2007-10-17 14:31:20 51°13.083 2°50.392 61.1 13.3 58 14.1
2007-10-17 14:32:20 51°13.194 2°50.697 60.6 13.2 62 13.8
2007-10-17 14:33:20 51°13.307 2°51 61 13.3 59 14.2
2007-10-17 14:34:20 51°13.418 2°51.302 61.4 13.3 57 14.2
2007-10-17 14:35:20 51°13.53 2°51.606 60.5 13.2 58 13.4
2007-10-17 14:36:20 51°13.644 2°51.909 61.3 13.1 57 13.3
2007-10-17 14:37:21 51°13.757 2°52.216 61.7 13.2 60 13.3
2007-10-17 14:38:21 51°13.873 2°52.518 59.8 13.4 58 13.7
2007-10-17 14:39:21 51°13.99 2°52.82 61.5 13.3 57 13.1
2007-10-17 14:40:21 51°14.1 2°53.124 64.4 13.3 59 13
2007-10-17 14:41:20 51°14.207 2°53.43 65.1 13.1 60 11.7
2007-10-17 14:42:19 51°14.304 2°53.74 70.4 13.3 72 12.8
2007-10-17 14:43:19 51°14.356 2°54.084 80.4 13.4 74 11.3
2007-10-17 14:44:19 51°14.393 2°54.432 89.7 13.2 79 12.2
2007-10-17 14:45:19 51°14.406 2°54.782 101.6 13.5 95 13.4
2007-10-17 14:46:19 51°14.338 2°55.102 130.6 12.3 121 13.6
2007-10-17 14:47:19 51°14.208 2°55.332 145.3 10.7 141 13.5
2007-10-17 14:48:24 51°14.097 2°55.434 160.6 5.1 157 12.6
2007-10-17 14:49:23 51°14.033 2°55.482 159.6 3.9 155 -999
2007-10-17 14:50:24 51°13.97 2°55.529 160.3 4.3 156 -999
2007-10-17 14:51:24 51°13.901 2°55.578 158.9 4.9 155 -999
2007-10-17 14:52:23 51°13.825 2°55.633 159.2 5.1 155 -999
2007-10-17 14:53:23 51°13.747 2°55.709 139.7 6 140 -999
2007-10-17 14:54:29 51°13.678 2°55.844 126.1 5.5 123 -999
2007-10-17 14:55:29 51°13.636 2°55.952 125.4 4.2 122 -999
2007-10-17 14:56:29 51°13.61 2°56.035 112 2.8 110 -999
2007-10-17 14:57:29 51°13.601 2°56.082 115.2 0.8 108 -999
2007-10-17 14:58:29 51°13.597 2°56.093 124.3 0.1 193 -999
2007-10-17 14:59:29 51°13.596 2°56.096 124 -999 23 -999
2007-10-17 15:00:29 51°13.597 2°56.094 128.1 0.1 301 -999